sensor_id;sensor_type;location;lat;lon;timestamp;P1;durP1;ratioP1;P2;durP2;ratioP2
59587;SDS011;45412;54.472;18.464;2022-10-31T00:02:18;23.80;;;11.60;;
59587;SDS011;45412;54.472;18.464;2022-10-31T00:05:06;21.90;;;12.10;;
59587;SDS011;45412;54.472;18.464;2022-10-31T00:07:54;21.40;;;11.40;;
59587;SDS011;45412;54.472;18.464;2022-10-31T00:10:43;22.30;;;11.30;;
59587;SDS011;45412;54.472;18.464;2022-10-31T00:13:31;23.30;;;11.40;;
59587;SDS011;45412;54.472;18.464;2022-10-31T00:16:21;18.10;;;10.40;;
59587;SDS011;45412;54.472;18.464;2022-10-31T00:19:10;21.50;;;10.60;;
59587;SDS011;45412;54.472;18.464;2022-10-31T00:21:58;20.80;;;10.50;;
59587;SDS011;45412;54.472;18.464;2022-10-31T00:24:45;22.00;;;11.70;;
59587;SDS011;45412;54.472;18.464;2022-10-31T00:27:33;22.10;;;11.10;;
59587;SDS011;45412;54.472;18.464;2022-10-31T00:30:21;23.40;;;11.10;;
59587;SDS011;45412;54.472;18.464;2022-10-31T00:33:08;22.80;;;12.00;;
59587;SDS011;45412;54.472;18.464;2022-10-31T00:35:56;25.50;;;11.70;;
59587;SDS011;45412;54.472;18.464;2022-10-31T00:38:44;24.40;;;12.20;;
59587;SDS011;45412;54.472;18.464;2022-10-31T00:41:33;26.90;;;12.50;;
59587;SDS011;45412;54.472;18.464;2022-10-31T00:44:21;26.70;;;11.90;;
59587;SDS011;45412;54.472;18.464;2022-10-31T00:47:08;27.10;;;12.90;;
59587;SDS011;45412;54.472;18.464;2022-10-31T00:49:58;26.50;;;11.50;;
59587;SDS011;45412;54.472;18.464;2022-10-31T00:52:46;27.00;;;12.10;;
59587;SDS011;45412;54.472;18.464;2022-10-31T00:55:33;27.90;;;11.70;;
59587;SDS011;45412;54.472;18.464;2022-10-31T00:58:22;26.80;;;12.10;;
59587;SDS011;45412;54.472;18.464;2022-10-31T01:01:10;21.70;;;10.50;;
59587;SDS011;45412;54.472;18.464;2022-10-31T01:03:57;24.30;;;10.70;;
59587;SDS011;45412;54.472;18.464;2022-10-31T01:06:46;24.70;;;10.90;;
59587;SDS011;45412;54.472;18.464;2022-10-31T01:09:36;23.80;;;11.70;;
59587;SDS011;45412;54.472;18.464;2022-10-31T01:12:24;25.10;;;10.30;;
59587;SDS011;45412;54.472;18.464;2022-10-31T01:15:13;24.20;;;11.80;;
59587;SDS011;45412;54.472;18.464;2022-10-31T01:18:03;24.90;;;10.30;;
59587;SDS011;45412;54.472;18.464;2022-10-31T01:21:07;21.60;;;10.10;;
59587;SDS011;45412;54.472;18.464;2022-10-31T01:23:59;21.70;;;10.60;;
59587;SDS011;45412;54.472;18.464;2022-10-31T01:26:50;18.40;;;9.00;;
59587;SDS011;45412;54.472;18.464;2022-10-31T01:29:37;22.80;;;10.60;;
59587;SDS011;45412;54.472;18.464;2022-10-31T01:32:27;19.90;;;8.90;;
59587;SDS011;45412;54.472;18.464;2022-10-31T01:35:16;15.90;;;7.90;;
59587;SDS011;45412;54.472;18.464;2022-10-31T01:38:06;18.70;;;9.50;;
59587;SDS011;45412;54.472;18.464;2022-10-31T01:40:54;17.20;;;8.70;;
59587;SDS011;45412;54.472;18.464;2022-10-31T01:43:52;17.20;;;8.10;;
59587;SDS011;45412;54.472;18.464;2022-10-31T01:50:01;15.70;;;7.80;;
59587;SDS011;45412;54.472;18.464;2022-10-31T01:52:53;15.50;;;7.90;;
59587;SDS011;45412;54.472;18.464;2022-10-31T01:55:44;18.80;;;9.50;;
59587;SDS011;45412;54.472;18.464;2022-10-31T01:58:34;15.30;;;7.90;;
59587;SDS011;45412;54.472;18.464;2022-10-31T02:01:23;15.80;;;7.70;;
59587;SDS011;45412;54.472;18.464;2022-10-31T02:04:11;16.30;;;8.50;;
59587;SDS011;45412;54.472;18.464;2022-10-31T02:07:02;17.00;;;8.70;;
59587;SDS011;45412;54.472;18.464;2022-10-31T02:09:54;16.70;;;7.90;;
59587;SDS011;45412;54.472;18.464;2022-10-31T02:12:44;16.50;;;8.80;;
59587;SDS011;45412;54.472;18.464;2022-10-31T02:15:33;16.50;;;8.90;;
59587;SDS011;45412;54.472;18.464;2022-10-31T02:18:24;16.90;;;8.40;;
59587;SDS011;45412;54.472;18.464;2022-10-31T02:24:26;18.70;;;9.00;;
59587;SDS011;45412;54.472;18.464;2022-10-31T02:44:08;24.90;;;10.90;;
59587;SDS011;45412;54.472;18.464;2022-10-31T02:47:29;24.10;;;10.80;;
59587;SDS011;45412;54.472;18.464;2022-10-31T02:50:26;22.00;;;10.20;;
59587;SDS011;45412;54.472;18.464;2022-10-31T02:53:18;18.30;;;7.80;;
59587;SDS011;45412;54.472;18.464;2022-10-31T02:56:17;25.20;;;10.60;;
59587;SDS011;45412;54.472;18.464;2022-10-31T02:59:06;25.90;;;10.60;;
59587;SDS011;45412;54.472;18.464;2022-10-31T03:02:17;23.20;;;10.10;;
59587;SDS011;45412;54.472;18.464;2022-10-31T03:08:59;22.50;;;10.10;;
59587;SDS011;45412;54.472;18.464;2022-10-31T03:15:22;25.60;;;11.20;;
59587;SDS011;45412;54.472;18.464;2022-10-31T03:18:29;26.30;;;11.80;;
59587;SDS011;45412;54.472;18.464;2022-10-31T03:21:25;26.60;;;11.30;;
59587;SDS011;45412;54.472;18.464;2022-10-31T03:24:20;27.80;;;11.60;;
59587;SDS011;45412;54.472;18.464;2022-10-31T03:27:13;27.80;;;11.90;;
59587;SDS011;45412;54.472;18.464;2022-10-31T03:30:05;29.00;;;12.10;;
59587;SDS011;45412;54.472;18.464;2022-10-31T03:33:10;30.10;;;12.00;;
59587;SDS011;45412;54.472;18.464;2022-10-31T03:36:05;27.50;;;11.80;;
59587;SDS011;45412;54.472;18.464;2022-10-31T03:38:56;31.20;;;12.30;;
59587;SDS011;45412;54.472;18.464;2022-10-31T03:41:56;26.30;;;12.00;;
59587;SDS011;45412;54.472;18.464;2022-10-31T03:44:58;30.40;;;12.10;;
59587;SDS011;45412;54.472;18.464;2022-10-31T03:47:49;31.80;;;12.80;;
59587;SDS011;45412;54.472;18.464;2022-10-31T03:50:49;29.80;;;13.00;;
59587;SDS011;45412;54.472;18.464;2022-10-31T03:53:52;27.90;;;12.50;;
59587;SDS011;45412;54.472;18.464;2022-10-31T03:56:50;29.40;;;12.80;;
59587;SDS011;45412;54.472;18.464;2022-10-31T03:59:44;31.00;;;13.20;;
59587;SDS011;45412;54.472;18.464;2022-10-31T04:02:43;29.00;;;12.10;;
59587;SDS011;45412;54.472;18.464;2022-10-31T04:05:37;32.00;;;13.80;;
59587;SDS011;45412;54.472;18.464;2022-10-31T04:08:28;27.80;;;12.80;;
59587;SDS011;45412;54.472;18.464;2022-10-31T04:11:21;30.30;;;12.00;;
59587;SDS011;45412;54.472;18.464;2022-10-31T04:14:45;28.40;;;12.60;;
59587;SDS011;45412;54.472;18.464;2022-10-31T04:17:36;30.00;;;13.00;;
59587;SDS011;45412;54.472;18.464;2022-10-31T04:20:33;30.30;;;13.90;;
59587;SDS011;45412;54.472;18.464;2022-10-31T04:23:25;29.30;;;13.80;;
59587;SDS011;45412;54.472;18.464;2022-10-31T04:26:14;26.00;;;11.30;;
59587;SDS011;45412;54.472;18.464;2022-10-31T04:29:04;27.30;;;12.90;;
59587;SDS011;45412;54.472;18.464;2022-10-31T04:31:52;31.60;;;13.40;;
59587;SDS011;45412;54.472;18.464;2022-10-31T04:34:40;31.60;;;13.70;;
59587;SDS011;45412;54.472;18.464;2022-10-31T04:37:31;33.90;;;14.40;;
59587;SDS011;45412;54.472;18.464;2022-10-31T04:40:19;27.70;;;13.80;;
59587;SDS011;45412;54.472;18.464;2022-10-31T04:43:25;28.20;;;13.60;;
59587;SDS011;45412;54.472;18.464;2022-10-31T04:46:13;29.60;;;13.80;;
59587;SDS011;45412;54.472;18.464;2022-10-31T04:49:02;31.00;;;14.30;;
59587;SDS011;45412;54.472;18.464;2022-10-31T04:51:50;31.00;;;13.70;;
59587;SDS011;45412;54.472;18.464;2022-10-31T04:54:37;29.20;;;13.30;;
59587;SDS011;45412;54.472;18.464;2022-10-31T04:57:46;29.50;;;13.90;;
59587;SDS011;45412;54.472;18.464;2022-10-31T05:00:35;27.70;;;12.00;;
59587;SDS011;45412;54.472;18.464;2022-10-31T05:03:24;28.50;;;13.60;;
59587;SDS011;45412;54.472;18.464;2022-10-31T05:06:12;25.30;;;12.90;;
59587;SDS011;45412;54.472;18.464;2022-10-31T05:09:01;24.30;;;12.00;;
59587;SDS011;45412;54.472;18.464;2022-10-31T05:11:48;27.00;;;13.00;;
59587;SDS011;45412;54.472;18.464;2022-10-31T05:14:49;24.60;;;11.90;;
59587;SDS011;45412;54.472;18.464;2022-10-31T05:17:55;23.30;;;10.40;;
59587;SDS011;45412;54.472;18.464;2022-10-31T05:21:05;30.80;;;12.40;;
59587;SDS011;45412;54.472;18.464;2022-10-31T05:23:54;24.90;;;12.20;;
59587;SDS011;45412;54.472;18.464;2022-10-31T05:26:43;23.90;;;11.70;;
59587;SDS011;45412;54.472;18.464;2022-10-31T05:29:33;25.30;;;11.60;;
59587;SDS011;45412;54.472;18.464;2022-10-31T05:32:23;21.50;;;10.10;;
59587;SDS011;45412;54.472;18.464;2022-10-31T05:35:43;24.60;;;11.70;;
59587;SDS011;45412;54.472;18.464;2022-10-31T05:38:51;22.80;;;11.20;;
59587;SDS011;45412;54.472;18.464;2022-10-31T05:41:45;23.60;;;9.70;;
59587;SDS011;45412;54.472;18.464;2022-10-31T05:44:41;25.10;;;12.60;;
59587;SDS011;45412;54.472;18.464;2022-10-31T05:47:39;27.30;;;13.10;;
59587;SDS011;45412;54.472;18.464;2022-10-31T05:50:48;27.10;;;12.30;;
59587;SDS011;45412;54.472;18.464;2022-10-31T05:53:36;29.90;;;14.00;;
59587;SDS011;45412;54.472;18.464;2022-10-31T05:56:24;26.80;;;13.90;;
59587;SDS011;45412;54.472;18.464;2022-10-31T05:59:12;27.50;;;12.70;;
59587;SDS011;45412;54.472;18.464;2022-10-31T06:01:59;29.80;;;14.20;;
59587;SDS011;45412;54.472;18.464;2022-10-31T06:05:10;28.40;;;13.50;;
59587;SDS011;45412;54.472;18.464;2022-10-31T06:07:58;27.10;;;13.50;;
59587;SDS011;45412;54.472;18.464;2022-10-31T06:10:46;31.50;;;15.10;;
59587;SDS011;45412;54.472;18.464;2022-10-31T06:13:36;31.30;;;14.50;;
59587;SDS011;45412;54.472;18.464;2022-10-31T06:16:33;32.00;;;15.60;;
59587;SDS011;45412;54.472;18.464;2022-10-31T06:19:34;32.60;;;14.60;;
59587;SDS011;45412;54.472;18.464;2022-10-31T06:22:22;31.40;;;15.80;;
59587;SDS011;45412;54.472;18.464;2022-10-31T06:25:10;29.80;;;13.30;;
59587;SDS011;45412;54.472;18.464;2022-10-31T06:28:02;31.50;;;15.30;;
59587;SDS011;45412;54.472;18.464;2022-10-31T06:31:12;31.60;;;14.70;;
59587;SDS011;45412;54.472;18.464;2022-10-31T06:34:00;28.30;;;14.40;;
59587;SDS011;45412;54.472;18.464;2022-10-31T06:36:48;28.40;;;14.40;;
59587;SDS011;45412;54.472;18.464;2022-10-31T06:39:38;28.00;;;14.20;;
59587;SDS011;45412;54.472;18.464;2022-10-31T06:42:28;30.00;;;13.90;;
59587;SDS011;45412;54.472;18.464;2022-10-31T06:45:16;28.10;;;14.00;;
59587;SDS011;45412;54.472;18.464;2022-10-31T06:48:22;32.90;;;15.70;;
59587;SDS011;45412;54.472;18.464;2022-10-31T06:51:29;33.40;;;15.00;;
59587;SDS011;45412;54.472;18.464;2022-10-31T06:54:18;26.90;;;13.10;;
59587;SDS011;45412;54.472;18.464;2022-10-31T06:57:06;25.40;;;12.90;;
59587;SDS011;45412;54.472;18.464;2022-10-31T06:59:57;25.60;;;13.00;;
59587;SDS011;45412;54.472;18.464;2022-10-31T07:03:02;30.80;;;14.20;;
59587;SDS011;45412;54.472;18.464;2022-10-31T07:05:55;30.00;;;13.40;;
59587;SDS011;45412;54.472;18.464;2022-10-31T07:08:44;27.60;;;13.20;;
59587;SDS011;45412;54.472;18.464;2022-10-31T07:11:32;27.50;;;13.40;;
59587;SDS011;45412;54.472;18.464;2022-10-31T07:14:20;28.60;;;14.30;;
59587;SDS011;45412;54.472;18.464;2022-10-31T07:17:08;32.20;;;14.70;;
59587;SDS011;45412;54.472;18.464;2022-10-31T07:19:59;26.20;;;13.40;;
59587;SDS011;45412;54.472;18.464;2022-10-31T07:22:47;35.30;;;16.20;;
59587;SDS011;45412;54.472;18.464;2022-10-31T07:25:38;28.90;;;13.90;;
59587;SDS011;45412;54.472;18.464;2022-10-31T07:28:31;26.60;;;14.10;;
59587;SDS011;45412;54.472;18.464;2022-10-31T07:31:19;30.60;;;16.90;;
59587;SDS011;45412;54.472;18.464;2022-10-31T07:34:06;31.20;;;14.90;;
59587;SDS011;45412;54.472;18.464;2022-10-31T07:36:55;30.60;;;14.60;;
59587;SDS011;45412;54.472;18.464;2022-10-31T07:39:43;28.30;;;13.70;;
59587;SDS011;45412;54.472;18.464;2022-10-31T07:42:37;31.70;;;15.30;;
59587;SDS011;45412;54.472;18.464;2022-10-31T07:45:32;28.00;;;13.70;;
59587;SDS011;45412;54.472;18.464;2022-10-31T07:48:51;29.50;;;13.90;;
59587;SDS011;45412;54.472;18.464;2022-10-31T07:51:58;26.60;;;13.40;;
59587;SDS011;45412;54.472;18.464;2022-10-31T07:55:14;30.10;;;14.20;;
59587;SDS011;45412;54.472;18.464;2022-10-31T07:58:12;29.80;;;14.00;;
59587;SDS011;45412;54.472;18.464;2022-10-31T08:01:01;25.30;;;12.20;;
59587;SDS011;45412;54.472;18.464;2022-10-31T08:03:53;29.70;;;14.80;;
59587;SDS011;45412;54.472;18.464;2022-10-31T08:07:19;30.50;;;13.90;;
59587;SDS011;45412;54.472;18.464;2022-10-31T08:10:12;26.80;;;10.90;;
59587;SDS011;45412;54.472;18.464;2022-10-31T08:13:02;29.90;;;14.60;;
59587;SDS011;45412;54.472;18.464;2022-10-31T08:15:51;29.00;;;13.60;;
59587;SDS011;45412;54.472;18.464;2022-10-31T08:18:43;86.70;;;53.20;;
59587;SDS011;45412;54.472;18.464;2022-10-31T08:21:32;33.80;;;18.60;;
59587;SDS011;45412;54.472;18.464;2022-10-31T08:24:21;34.70;;;17.30;;
59587;SDS011;45412;54.472;18.464;2022-10-31T08:27:09;31.60;;;15.50;;
59587;SDS011;45412;54.472;18.464;2022-10-31T08:29:58;26.50;;;13.70;;
59587;SDS011;45412;54.472;18.464;2022-10-31T08:32:47;31.20;;;15.30;;
59587;SDS011;45412;54.472;18.464;2022-10-31T08:35:54;33.60;;;15.10;;
59587;SDS011;45412;54.472;18.464;2022-10-31T08:39:13;27.70;;;12.50;;
59587;SDS011;45412;54.472;18.464;2022-10-31T08:42:02;86.00;;;50.00;;
59587;SDS011;45412;54.472;18.464;2022-10-31T08:44:49;50.80;;;26.70;;
59587;SDS011;45412;54.472;18.464;2022-10-31T08:47:40;39.40;;;17.10;;
59587;SDS011;45412;54.472;18.464;2022-10-31T08:50:29;37.70;;;17.40;;
59587;SDS011;45412;54.472;18.464;2022-10-31T08:53:18;38.70;;;16.80;;
59587;SDS011;45412;54.472;18.464;2022-10-31T08:56:11;37.40;;;16.30;;
59587;SDS011;45412;54.472;18.464;2022-10-31T08:58:59;35.80;;;15.80;;
59587;SDS011;45412;54.472;18.464;2022-10-31T09:02:07;36.20;;;14.60;;
59587;SDS011;45412;54.472;18.464;2022-10-31T09:04:55;38.10;;;17.40;;
59587;SDS011;45412;54.472;18.464;2022-10-31T09:07:43;37.70;;;17.00;;
59587;SDS011;45412;54.472;18.464;2022-10-31T09:10:32;37.60;;;16.10;;
59587;SDS011;45412;54.472;18.464;2022-10-31T09:13:22;35.60;;;16.30;;
59587;SDS011;45412;54.472;18.464;2022-10-31T09:16:49;38.50;;;17.00;;
59587;SDS011;45412;54.472;18.464;2022-10-31T09:19:41;42.40;;;18.40;;
59587;SDS011;45412;54.472;18.464;2022-10-31T09:22:28;40.80;;;17.70;;
59587;SDS011;45412;54.472;18.464;2022-10-31T09:25:16;36.20;;;15.80;;
59587;SDS011;45412;54.472;18.464;2022-10-31T09:28:10;38.70;;;17.20;;
59587;SDS011;45412;54.472;18.464;2022-10-31T09:31:01;40.20;;;18.00;;
59587;SDS011;45412;54.472;18.464;2022-10-31T09:34:07;38.90;;;17.80;;
59587;SDS011;45412;54.472;18.464;2022-10-31T09:36:55;35.60;;;16.00;;
59587;SDS011;45412;54.472;18.464;2022-10-31T09:39:43;41.90;;;18.20;;
59587;SDS011;45412;54.472;18.464;2022-10-31T09:45:56;35.00;;;16.20;;
59587;SDS011;45412;54.472;18.464;2022-10-31T09:52:24;38.30;;;17.80;;
59587;SDS011;45412;54.472;18.464;2022-10-31T09:58:29;42.30;;;20.50;;
59587;SDS011;45412;54.472;18.464;2022-10-31T10:01:29;37.00;;;18.60;;
59587;SDS011;45412;54.472;18.464;2022-10-31T10:04:40;38.80;;;19.30;;
59587;SDS011;45412;54.472;18.464;2022-10-31T10:11:47;37.30;;;18.90;;
59587;SDS011;45412;54.472;18.464;2022-10-31T10:24:55;34.30;;;17.80;;
59587;SDS011;45412;54.472;18.464;2022-10-31T10:31:15;36.40;;;18.60;;
59587;SDS011;45412;54.472;18.464;2022-10-31T10:34:12;36.90;;;20.00;;
59587;SDS011;45412;54.472;18.464;2022-10-31T10:37:30;35.40;;;18.60;;
59587;SDS011;45412;54.472;18.464;2022-10-31T10:40:25;40.10;;;21.30;;
59587;SDS011;45412;54.472;18.464;2022-10-31T10:43:36;33.40;;;17.60;;
59587;SDS011;45412;54.472;18.464;2022-10-31T10:46:40;40.50;;;20.20;;
59587;SDS011;45412;54.472;18.464;2022-10-31T10:49:50;35.20;;;17.20;;
59587;SDS011;45412;54.472;18.464;2022-10-31T10:52:46;38.20;;;19.20;;
59587;SDS011;45412;54.472;18.464;2022-10-31T10:56:11;39.80;;;20.60;;
59587;SDS011;45412;54.472;18.464;2022-10-31T10:59:03;34.70;;;19.70;;
59587;SDS011;45412;54.472;18.464;2022-10-31T11:01:52;39.10;;;21.40;;
59587;SDS011;45412;54.472;18.464;2022-10-31T11:04:39;36.30;;;19.00;;
59587;SDS011;45412;54.472;18.464;2022-10-31T11:07:40;37.00;;;20.80;;
59587;SDS011;45412;54.472;18.464;2022-10-31T11:10:28;38.70;;;21.10;;
59587;SDS011;45412;54.472;18.464;2022-10-31T11:13:23;35.20;;;19.70;;
59587;SDS011;45412;54.472;18.464;2022-10-31T11:16:27;34.10;;;19.70;;
59587;SDS011;45412;54.472;18.464;2022-10-31T11:19:27;36.10;;;19.60;;
59587;SDS011;45412;54.472;18.464;2022-10-31T11:22:16;33.40;;;18.70;;
59587;SDS011;45412;54.472;18.464;2022-10-31T11:25:22;37.30;;;20.10;;
59587;SDS011;45412;54.472;18.464;2022-10-31T11:28:11;37.70;;;21.40;;
59587;SDS011;45412;54.472;18.464;2022-10-31T11:31:04;33.10;;;18.50;;
59587;SDS011;45412;54.472;18.464;2022-10-31T11:34:02;33.60;;;19.50;;
59587;SDS011;45412;54.472;18.464;2022-10-31T11:36:51;32.80;;;18.90;;
59587;SDS011;45412;54.472;18.464;2022-10-31T11:39:51;29.90;;;18.00;;
59587;SDS011;45412;54.472;18.464;2022-10-31T11:42:45;35.90;;;21.00;;
59587;SDS011;45412;54.472;18.464;2022-10-31T11:45:36;34.90;;;17.50;;
59587;SDS011;45412;54.472;18.464;2022-10-31T11:48:24;34.90;;;20.10;;
59587;SDS011;45412;54.472;18.464;2022-10-31T11:51:12;31.40;;;17.20;;
59587;SDS011;45412;54.472;18.464;2022-10-31T11:54:20;37.00;;;21.30;;
59587;SDS011;45412;54.472;18.464;2022-10-31T11:57:27;34.70;;;20.10;;
59587;SDS011;45412;54.472;18.464;2022-10-31T12:00:29;38.50;;;20.10;;
59587;SDS011;45412;54.472;18.464;2022-10-31T12:06:30;32.70;;;17.50;;
59587;SDS011;45412;54.472;18.464;2022-10-31T12:09:29;35.50;;;20.70;;
59587;SDS011;45412;54.472;18.464;2022-10-31T12:15:26;40.70;;;21.60;;
59587;SDS011;45412;54.472;18.464;2022-10-31T12:21:52;36.90;;;20.30;;
59587;SDS011;45412;54.472;18.464;2022-10-31T12:41:51;31.00;;;17.30;;
59587;SDS011;45412;54.472;18.464;2022-10-31T12:49:00;34.20;;;18.60;;
59587;SDS011;45412;54.472;18.464;2022-10-31T12:55:41;32.60;;;17.50;;
59587;SDS011;45412;54.472;18.464;2022-10-31T12:59:01;30.70;;;16.90;;
59587;SDS011;45412;54.472;18.464;2022-10-31T13:05:25;34.00;;;19.40;;
59587;SDS011;45412;54.472;18.464;2022-10-31T13:08:17;31.00;;;18.70;;
59587;SDS011;45412;54.472;18.464;2022-10-31T13:11:33;31.00;;;18.20;;
59587;SDS011;45412;54.472;18.464;2022-10-31T13:17:45;36.20;;;18.90;;
59587;SDS011;45412;54.472;18.464;2022-10-31T13:20:42;35.00;;;18.10;;
59587;SDS011;45412;54.472;18.464;2022-10-31T13:23:38;31.70;;;17.10;;
59587;SDS011;45412;54.472;18.464;2022-10-31T13:26:46;34.60;;;18.80;;
59587;SDS011;45412;54.472;18.464;2022-10-31T13:29:45;32.60;;;18.50;;
59587;SDS011;45412;54.472;18.464;2022-10-31T13:32:55;35.30;;;19.30;;
59587;SDS011;45412;54.472;18.464;2022-10-31T13:45:33;29.70;;;16.30;;
59587;SDS011;45412;54.472;18.464;2022-10-31T13:51:24;32.70;;;16.80;;
59587;SDS011;45412;54.472;18.464;2022-10-31T13:54:34;28.60;;;15.50;;
59587;SDS011;45412;54.472;18.464;2022-10-31T13:57:33;26.60;;;14.60;;
59587;SDS011;45412;54.472;18.464;2022-10-31T14:00:26;28.40;;;16.20;;
59587;SDS011;45412;54.472;18.464;2022-10-31T14:03:18;30.20;;;17.10;;
59587;SDS011;45412;54.472;18.464;2022-10-31T14:06:45;32.40;;;17.80;;
59587;SDS011;45412;54.472;18.464;2022-10-31T14:09:57;32.10;;;16.60;;
59587;SDS011;45412;54.472;18.464;2022-10-31T14:12:49;32.20;;;16.80;;
59587;SDS011;45412;54.472;18.464;2022-10-31T14:15:38;37.50;;;20.20;;
59587;SDS011;45412;54.472;18.464;2022-10-31T14:18:37;40.40;;;21.90;;
59587;SDS011;45412;54.472;18.464;2022-10-31T14:21:41;36.30;;;20.50;;
59587;SDS011;45412;54.472;18.464;2022-10-31T14:24:33;41.30;;;21.00;;
59587;SDS011;45412;54.472;18.464;2022-10-31T14:30:18;34.90;;;19.70;;
59587;SDS011;45412;54.472;18.464;2022-10-31T14:33:15;32.10;;;18.20;;
59587;SDS011;45412;54.472;18.464;2022-10-31T14:36:15;36.40;;;19.90;;
59587;SDS011;45412;54.472;18.464;2022-10-31T14:39:21;33.40;;;17.90;;
59587;SDS011;45412;54.472;18.464;2022-10-31T14:52:12;31.90;;;17.70;;
59587;SDS011;45412;54.472;18.464;2022-10-31T14:55:06;36.80;;;19.90;;
59587;SDS011;45412;54.472;18.464;2022-10-31T14:58:02;31.90;;;18.20;;
59587;SDS011;45412;54.472;18.464;2022-10-31T15:00:55;32.80;;;17.00;;
59587;SDS011;45412;54.472;18.464;2022-10-31T15:03:44;31.70;;;16.00;;
59587;SDS011;45412;54.472;18.464;2022-10-31T15:07:08;31.60;;;16.50;;
59587;SDS011;45412;54.472;18.464;2022-10-31T15:10:01;32.50;;;16.20;;
59587;SDS011;45412;54.472;18.464;2022-10-31T15:12:52;31.70;;;15.30;;
59587;SDS011;45412;54.472;18.464;2022-10-31T15:15:40;33.50;;;16.70;;
59587;SDS011;45412;54.472;18.464;2022-10-31T15:18:27;35.00;;;17.00;;
59587;SDS011;45412;54.472;18.464;2022-10-31T15:21:17;30.70;;;16.60;;
59587;SDS011;45412;54.472;18.464;2022-10-31T15:24:11;31.30;;;15.70;;
59587;SDS011;45412;54.472;18.464;2022-10-31T15:27:05;34.40;;;17.50;;
59587;SDS011;45412;54.472;18.464;2022-10-31T15:30:00;34.20;;;17.70;;
59587;SDS011;45412;54.472;18.464;2022-10-31T15:32:48;32.80;;;16.00;;
59587;SDS011;45412;54.472;18.464;2022-10-31T15:35:54;34.40;;;16.50;;
59587;SDS011;45412;54.472;18.464;2022-10-31T15:38:46;32.30;;;15.50;;
59587;SDS011;45412;54.472;18.464;2022-10-31T15:44:36;33.40;;;17.50;;
59587;SDS011;45412;54.472;18.464;2022-10-31T15:47:29;34.30;;;17.50;;
59587;SDS011;45412;54.472;18.464;2022-10-31T15:53:48;38.20;;;17.50;;
59587;SDS011;45412;54.472;18.464;2022-10-31T15:56:40;34.30;;;16.50;;
59587;SDS011;45412;54.472;18.464;2022-10-31T15:59:31;25.30;;;12.40;;
59587;SDS011;45412;54.472;18.464;2022-10-31T16:02:21;22.40;;;12.20;;
59587;SDS011;45412;54.472;18.464;2022-10-31T16:05:18;24.10;;;11.70;;
59587;SDS011;45412;54.472;18.464;2022-10-31T16:17:00;23.10;;;11.70;;
59587;SDS011;45412;54.472;18.464;2022-10-31T16:20:04;22.90;;;11.20;;
59587;SDS011;45412;54.472;18.464;2022-10-31T16:22:57;22.10;;;11.90;;
59587;SDS011;45412;54.472;18.464;2022-10-31T16:25:51;27.90;;;14.80;;
59587;SDS011;45412;54.472;18.464;2022-10-31T16:28:53;26.50;;;15.60;;
59587;SDS011;45412;54.472;18.464;2022-10-31T16:31:52;23.80;;;13.40;;
59587;SDS011;45412;54.472;18.464;2022-10-31T16:34:45;25.70;;;13.90;;
59587;SDS011;45412;54.472;18.464;2022-10-31T16:37:41;24.50;;;13.20;;
59587;SDS011;45412;54.472;18.464;2022-10-31T16:40:32;25.90;;;13.20;;
59587;SDS011;45412;54.472;18.464;2022-10-31T16:43:21;23.60;;;13.40;;
59587;SDS011;45412;54.472;18.464;2022-10-31T16:46:14;27.60;;;13.80;;
59587;SDS011;45412;54.472;18.464;2022-10-31T16:49:08;29.90;;;14.80;;
59587;SDS011;45412;54.472;18.464;2022-10-31T16:51:57;35.90;;;18.10;;
59587;SDS011;45412;54.472;18.464;2022-10-31T16:54:48;32.90;;;17.00;;
59587;SDS011;45412;54.472;18.464;2022-10-31T16:57:37;32.40;;;17.40;;
59587;SDS011;45412;54.472;18.464;2022-10-31T17:00:28;33.20;;;18.70;;
59587;SDS011;45412;54.472;18.464;2022-10-31T17:03:16;37.80;;;19.60;;
59587;SDS011;45412;54.472;18.464;2022-10-31T17:06:04;37.00;;;21.40;;
59587;SDS011;45412;54.472;18.464;2022-10-31T17:08:52;33.30;;;20.00;;
59587;SDS011;45412;54.472;18.464;2022-10-31T17:11:47;31.90;;;15.20;;
59587;SDS011;45412;54.472;18.464;2022-10-31T17:14:39;33.60;;;16.30;;
59587;SDS011;45412;54.472;18.464;2022-10-31T17:17:27;26.20;;;14.10;;
59587;SDS011;45412;54.472;18.464;2022-10-31T17:20:27;25.20;;;12.70;;
59587;SDS011;45412;54.472;18.464;2022-10-31T17:23:16;25.00;;;14.30;;
59587;SDS011;45412;54.472;18.464;2022-10-31T17:26:04;26.00;;;13.40;;
59587;SDS011;45412;54.472;18.464;2022-10-31T17:28:55;24.90;;;13.60;;
59587;SDS011;45412;54.472;18.464;2022-10-31T17:31:43;23.20;;;12.30;;
59587;SDS011;45412;54.472;18.464;2022-10-31T17:34:31;22.00;;;11.70;;
59587;SDS011;45412;54.472;18.464;2022-10-31T17:37:19;21.50;;;11.30;;
59587;SDS011;45412;54.472;18.464;2022-10-31T17:40:08;21.70;;;11.30;;
59587;SDS011;45412;54.472;18.464;2022-10-31T17:42:57;21.80;;;10.50;;
59587;SDS011;45412;54.472;18.464;2022-10-31T17:45:45;21.50;;;12.10;;
59587;SDS011;45412;54.472;18.464;2022-10-31T17:48:34;22.80;;;11.90;;
59587;SDS011;45412;54.472;18.464;2022-10-31T17:51:23;24.00;;;12.70;;
59587;SDS011;45412;54.472;18.464;2022-10-31T17:54:11;24.50;;;13.10;;
59587;SDS011;45412;54.472;18.464;2022-10-31T17:56:59;27.80;;;13.70;;
59587;SDS011;45412;54.472;18.464;2022-10-31T17:59:47;30.10;;;17.30;;
59587;SDS011;45412;54.472;18.464;2022-10-31T18:02:35;31.10;;;18.70;;
59587;SDS011;45412;54.472;18.464;2022-10-31T18:05:23;30.80;;;19.00;;
59587;SDS011;45412;54.472;18.464;2022-10-31T18:08:11;27.20;;;16.50;;
59587;SDS011;45412;54.472;18.464;2022-10-31T18:11:05;30.00;;;16.50;;
59587;SDS011;45412;54.472;18.464;2022-10-31T18:13:56;25.80;;;14.50;;
59587;SDS011;45412;54.472;18.464;2022-10-31T18:16:45;26.40;;;13.90;;
59587;SDS011;45412;54.472;18.464;2022-10-31T18:19:33;27.20;;;14.90;;
59587;SDS011;45412;54.472;18.464;2022-10-31T18:22:20;28.30;;;14.30;;
59587;SDS011;45412;54.472;18.464;2022-10-31T18:25:08;25.10;;;14.00;;
59587;SDS011;45412;54.472;18.464;2022-10-31T18:27:56;24.70;;;13.30;;
59587;SDS011;45412;54.472;18.464;2022-10-31T18:30:45;26.90;;;14.20;;
59587;SDS011;45412;54.472;18.464;2022-10-31T18:33:33;25.50;;;14.20;;
59587;SDS011;45412;54.472;18.464;2022-10-31T18:36:21;25.80;;;15.10;;
59587;SDS011;45412;54.472;18.464;2022-10-31T18:39:09;28.10;;;15.10;;
59587;SDS011;45412;54.472;18.464;2022-10-31T18:41:57;26.50;;;14.60;;
59587;SDS011;45412;54.472;18.464;2022-10-31T18:44:45;27.90;;;15.60;;
59587;SDS011;45412;54.472;18.464;2022-10-31T18:47:33;28.10;;;15.70;;
59587;SDS011;45412;54.472;18.464;2022-10-31T18:50:21;28.00;;;15.50;;
59587;SDS011;45412;54.472;18.464;2022-10-31T18:53:10;29.60;;;16.00;;
59587;SDS011;45412;54.472;18.464;2022-10-31T18:56:07;29.40;;;16.60;;
59587;SDS011;45412;54.472;18.464;2022-10-31T18:58:59;29.60;;;17.20;;
59587;SDS011;45412;54.472;18.464;2022-10-31T19:01:50;31.80;;;18.60;;
59587;SDS011;45412;54.472;18.464;2022-10-31T19:08:17;30.20;;;17.00;;